Kampville Court, Missouri
Current Conditions -  °F | °C
As of 9:15 PM on Saturday 22 Nov 2014 (Local Time) from KSET Reporting Station
Overcast Overcast  
Wind Chill: 52°   Ceiling: 1600
Heat Index: 52°   Visibility: 8mi
Dew Point: 51°   Wind: 8mph
Humidity: 97%   Direction: 170°S
Pressure: 29.9"   Gusts: NA
Location:  38.8615°N, 90.4548°W
Report Text: KSET 230315Z AUTO 17007KT 8SM OVC016 11/11 A2990 RMK AO2 RAE02 P0000 T01110106
Loading
Personal Weather Stations






























Interactive Weather Map New forecast layout! Learn more

10-Day Weather Forecast

Advertisements
Track Severe Weather on mobile